createdAt,value
2018-09-04T00:00:56.729Z,1.80
2018-09-04T00:03:30.572Z,1.70
2018-09-04T00:06:06.196Z,1.87
2018-09-04T00:08:40.829Z,2.10
2018-09-04T00:11:14.799Z,2.00
2018-09-04T00:13:49.136Z,1.80
2018-09-04T00:16:24.342Z,1.63
2018-09-04T00:18:58.842Z,1.67
2018-09-04T00:21:32.823Z,2.20
2018-09-04T00:24:06.788Z,2.10
2018-09-04T00:26:42.411Z,2.17
2018-09-04T00:29:16.096Z,1.70
2018-09-04T00:31:50.673Z,1.87
2018-09-04T00:34:26.498Z,1.93
2018-09-04T00:37:00.909Z,1.80
2018-09-04T00:39:35.540Z,2.13
2018-09-04T00:42:09.658Z,2.20
2018-09-04T00:44:45.644Z,2.00
2018-09-04T00:47:21.488Z,1.97
2018-09-04T00:49:56.262Z,2.27
2018-09-04T00:52:31.126Z,2.17
2018-09-04T00:55:06.060Z,2.40
2018-09-04T00:57:42.047Z,2.10
2018-09-04T01:00:17.716Z,2.40
2018-09-04T01:02:52.873Z,2.03
2018-09-04T01:05:28.660Z,2.07
2018-09-04T01:08:02.897Z,1.87
2018-09-04T01:10:36.445Z,2.20
2018-09-04T01:13:11.577Z,1.80
2018-09-04T01:15:47.669Z,2.43
2018-09-04T01:18:22.405Z,1.90
2018-09-04T01:20:57.895Z,2.17
2018-09-04T01:23:32.104Z,2.00
2018-09-04T01:26:08.471Z,2.43
2018-09-04T01:28:45.062Z,2.20
2018-09-04T01:31:21.559Z,2.20
2018-09-04T01:33:55.802Z,1.97
2018-09-04T01:36:30.691Z,2.33
2018-09-04T01:39:05.127Z,2.43
2018-09-04T01:41:39.113Z,2.50
2018-09-04T01:44:13.757Z,2.30
2018-09-04T01:46:47.516Z,2.20
2018-09-04T01:49:23.124Z,2.30
2018-09-04T01:51:58.094Z,2.17
2018-09-04T01:54:33.114Z,2.10
2018-09-04T01:57:07.434Z,2.60
2018-09-04T01:59:43.003Z,2.90
2018-09-04T02:02:16.753Z,4.73
2018-09-04T02:07:39.520Z,3.17
2018-09-04T02:10:15.818Z,3.17
2018-09-04T02:12:50.830Z,3.33
2018-09-04T02:15:30.132Z,3.70
2018-09-04T02:18:05.807Z,3.57
2018-09-04T02:20:39.272Z,2.93
2018-09-04T02:23:14.161Z,3.13
2018-09-04T02:25:52.206Z,3.33
2018-09-04T02:28:27.793Z,2.83
2018-09-04T02:31:01.655Z,2.83
2018-09-04T02:33:36.661Z,2.47
2018-09-04T02:36:10.758Z,2.50
2018-09-04T02:38:46.082Z,2.60
2018-09-04T02:41:21.449Z,2.43
2018-09-04T02:43:54.917Z,2.43
2018-09-04T02:46:29.947Z,2.37
2018-09-04T02:49:04.857Z,2.77
2018-09-04T02:51:40.033Z,2.20
2018-09-04T02:56:58.010Z,2.50
2018-09-04T02:59:35.868Z,2.40
2018-09-04T03:02:10.741Z,2.13
2018-09-04T03:04:44.739Z,2.30
2018-09-04T03:07:20.879Z,2.07
2018-09-04T03:09:56.210Z,2.10
2018-09-04T03:12:30.878Z,1.90
2018-09-04T03:15:06.020Z,2.20
2018-09-04T03:17:41.419Z,2.07
2018-09-04T03:20:16.768Z,1.97
2018-09-04T03:22:50.794Z,2.13
2018-09-04T03:25:24.902Z,10.37
2018-09-04T03:28:06.391Z,6.63
2018-09-04T03:30:47.899Z,3.67
2018-09-04T03:33:22.503Z,4.70
2018-09-04T03:35:57.041Z,3.03
2018-09-04T03:38:35.102Z,3.60
2018-09-04T03:41:09.858Z,3.83
2018-09-04T03:43:43.599Z,4.27
2018-09-04T03:46:18.406Z,2.40
2018-09-04T03:48:52.796Z,2.73
2018-09-04T03:54:05.695Z,2.30
2018-09-04T03:56:41.697Z,2.37
2018-09-04T03:59:16.182Z,3.17
2018-09-04T04:01:50.332Z,3.57
2018-09-04T04:04:24.476Z,3.13
2018-09-04T04:07:00.718Z,4.30
2018-09-04T04:09:35.181Z,3.03
2018-09-04T04:12:10.009Z,2.37
2018-09-04T04:14:44.053Z,2.20
2018-09-04T04:17:18.354Z,1.70
2018-09-04T04:19:53.791Z,2.10
2018-09-04T04:22:28.145Z,2.10
2018-09-04T04:25:03.188Z,1.93
2018-09-04T04:27:39.026Z,2.13
2018-09-04T04:30:13.037Z,2.50
2018-09-04T04:32:47.689Z,2.57
2018-09-04T04:35:23.893Z,2.20
2018-09-04T04:37:58.021Z,1.70
2018-09-04T04:40:32.932Z,2.50
2018-09-04T04:43:07.242Z,1.90
2018-09-04T04:49:22.791Z,2.00
2018-09-04T04:51:57.642Z,1.87
2018-09-04T04:54:35.572Z,1.73
2018-09-04T04:57:09.298Z,1.67
2018-09-04T04:59:44.105Z,2.10
2018-09-04T05:02:18.804Z,1.80
2018-09-04T05:04:53.076Z,2.00
2018-09-04T05:07:29.288Z,2.00
2018-09-04T05:10:04.612Z,2.07
2018-09-04T05:12:39.262Z,3.00
2018-09-04T05:15:14.550Z,2.70
2018-09-04T05:17:49.037Z,2.50
2018-09-04T05:20:28.587Z,2.50
2018-09-04T05:23:02.544Z,2.10
2018-09-04T05:25:37.584Z,1.90
2018-09-04T05:28:13.115Z,1.73
2018-09-04T05:30:48.388Z,1.83
2018-09-04T05:33:39.683Z,1.80
2018-09-04T05:36:17.676Z,1.73
2018-09-04T05:38:53.388Z,2.17
2018-09-04T05:41:27.151Z,1.90
2018-09-04T05:44:03.471Z,1.83
2018-09-04T05:46:46.068Z,1.87
2018-09-04T05:49:24.700Z,1.77
2018-09-04T05:51:59.525Z,1.90
2018-09-04T05:54:35.070Z,1.60
2018-09-04T05:57:10.515Z,1.70
2018-09-04T05:59:46.787Z,1.73
2018-09-04T06:02:21.605Z,1.90
2018-09-04T06:04:58.486Z,2.10
2018-09-04T06:07:33.528Z,2.13
2018-09-04T06:10:08.232Z,2.13
2018-09-04T06:12:43.182Z,2.00
2018-09-04T06:15:20.677Z,2.53
2018-09-04T06:17:57.907Z,1.67
2018-09-04T06:20:32.503Z,1.60
2018-09-04T06:23:09.672Z,1.60
2018-09-04T06:25:43.405Z,2.03
2018-09-04T06:28:19.480Z,1.97
2018-09-04T06:30:56.123Z,1.80
2018-09-04T06:33:30.477Z,2.13
2018-09-04T06:36:08.524Z,2.43
2018-09-04T06:38:44.298Z,2.10
2018-09-04T06:41:20.557Z,1.90
2018-09-04T06:43:58.856Z,2.10
2018-09-04T06:46:34.239Z,2.20
2018-09-04T06:49:12.119Z,2.80
2018-09-04T06:51:45.879Z,3.27
2018-09-04T06:54:20.019Z,2.00
2018-09-04T06:56:55.121Z,2.00
2018-09-04T06:59:28.853Z,2.07
2018-09-04T07:02:07.182Z,2.00
2018-09-04T07:04:41.555Z,2.20
2018-09-04T07:07:16.424Z,1.90
2018-09-04T07:09:51.674Z,1.70
2018-09-04T07:12:28.738Z,2.40
2018-09-04T07:15:04.158Z,2.00
2018-09-04T07:17:40.692Z,2.27
2018-09-04T07:20:21.540Z,2.20
2018-09-04T07:22:56.134Z,1.97
2018-09-04T07:25:30.475Z,2.10
2018-09-04T07:28:05.041Z,1.90
2018-09-04T07:30:38.501Z,2.53
2018-09-04T07:33:14.537Z,2.43
2018-09-04T07:35:54.599Z,2.20
2018-09-04T07:38:33.116Z,2.10
2018-09-04T07:41:09.704Z,2.10
2018-09-04T07:43:45.282Z,2.10
2018-09-04T14:34:39.137Z,4.27
2018-09-04T14:37:15.006Z,4.13
2018-09-04T14:39:55.589Z,4.27
2018-09-04T14:42:25.179Z,4.27
2018-09-04T14:45:01.019Z,4.40
2018-09-04T14:47:34.807Z,4.13
2018-09-04T14:50:16.613Z,3.97
2018-09-04T14:52:51.034Z,4.43
2018-09-04T14:55:30.610Z,4.43
2018-09-04T14:58:09.061Z,4.70
2018-09-04T15:00:42.392Z,3.83
2018-09-04T15:03:15.859Z,4.37
2018-09-04T15:05:50.173Z,4.57
2018-09-04T15:08:27.661Z,4.80
2018-09-04T15:11:05.773Z,4.97
2018-09-04T15:13:39.097Z,4.63
2018-09-04T15:16:12.491Z,4.33
2018-09-04T15:18:46.434Z,4.83
2018-09-04T15:21:24.896Z,4.33
2018-09-04T15:23:58.736Z,4.90
2018-09-04T15:26:52.418Z,4.20
2018-09-04T15:29:27.285Z,4.13
2018-09-04T15:32:00.487Z,4.17
2018-09-04T15:34:36.408Z,4.00
2018-09-04T15:37:10.683Z,3.43
2018-09-04T15:39:44.797Z,3.63
2018-09-04T15:42:18.573Z,3.57
2018-09-04T15:44:57.166Z,3.63
2018-09-04T15:47:32.421Z,3.33
2018-09-04T15:50:07.711Z,3.00
2018-09-04T15:52:41.043Z,3.13
2018-09-04T15:55:14.403Z,3.30
2018-09-04T15:57:47.502Z,3.00
2018-09-04T16:00:21.880Z,2.70
2018-09-04T16:02:54.976Z,3.10
2018-09-04T16:05:29.943Z,2.50
2018-09-04T16:08:05.550Z,2.37
2018-09-04T16:10:41.266Z,2.67
2018-09-04T16:13:14.829Z,2.53
2018-09-04T16:15:50.267Z,2.10
2018-09-04T16:18:24.680Z,2.50
2018-09-04T16:20:59.248Z,2.60
2018-09-04T16:23:32.659Z,2.63
2018-09-04T16:26:09.373Z,2.70
2018-09-04T16:28:42.777Z,2.63
2018-09-04T16:31:16.368Z,2.73
2018-09-04T16:33:50.144Z,2.77
2018-09-04T16:36:28.144Z,2.83
2018-09-04T16:39:05.455Z,2.50
2018-09-04T16:41:39.277Z,3.03
2018-09-04T16:44:20.203Z,2.57
2018-09-04T16:46:58.575Z,2.90
2018-09-04T16:49:34.044Z,2.80
2018-09-04T16:52:13.135Z,3.07
2018-09-04T16:54:50.098Z,2.77
2018-09-04T16:57:24.763Z,2.87
2018-09-04T16:59:59.978Z,2.50
2018-09-04T17:02:38.020Z,2.90
2018-09-04T17:05:14.589Z,3.07
2018-09-04T17:07:48.243Z,3.30
2018-09-04T17:10:21.433Z,3.07
2018-09-04T17:12:56.465Z,2.93
2018-09-04T17:15:39.327Z,2.87
2018-09-04T17:18:18.214Z,9.47
2018-09-04T17:20:56.379Z,2.73
2018-09-04T17:23:31.188Z,2.87
2018-09-04T17:26:04.662Z,2.80
2018-09-04T17:31:23.386Z,2.60
2018-09-04T17:36:35.467Z,2.90
2018-09-04T17:42:30.371Z,3.17
2018-09-04T17:45:05.490Z,2.83
2018-09-04T17:47:39.180Z,2.90
2018-09-04T17:50:12.894Z,3.30
2018-09-04T17:52:46.559Z,2.93
2018-09-04T17:55:19.966Z,3.03
2018-09-04T17:57:54.125Z,2.90
2018-09-04T18:00:30.044Z,2.93
2018-09-04T18:03:03.551Z,2.67
2018-09-04T18:05:43.411Z,2.90
2018-09-04T18:08:17.771Z,3.63
2018-09-04T18:10:51.686Z,2.83
2018-09-04T18:13:29.196Z,2.70
2018-09-04T18:16:03.160Z,2.70
2018-09-04T18:18:38.001Z,3.00
2018-09-04T18:21:13.071Z,2.83
2018-09-04T18:24:07.616Z,3.10
2018-09-04T18:26:41.401Z,2.63
2018-09-04T18:29:14.839Z,3.03
2018-09-04T18:31:48.441Z,3.03
2018-09-04T18:34:22.278Z,2.70
2018-09-04T18:36:59.327Z,3.10
2018-09-04T18:39:32.982Z,3.53
2018-09-04T18:42:06.468Z,3.00
2018-09-04T18:44:41.578Z,3.37
2018-09-04T18:47:14.992Z,2.87
2018-09-04T18:49:49.136Z,3.40
2018-09-04T18:52:22.846Z,2.83
2018-09-04T18:55:00.998Z,2.93
2018-09-04T18:57:34.896Z,3.00
2018-09-04T19:00:10.453Z,3.10
2018-09-04T19:02:49.098Z,2.90
2018-09-04T19:05:23.570Z,3.13
2018-09-04T19:07:56.849Z,3.47
2018-09-04T19:10:30.172Z,2.83
2018-09-04T19:13:04.947Z,3.30
2018-09-04T19:15:40.832Z,3.13
2018-09-04T19:18:14.364Z,3.13
2018-09-04T19:20:48.624Z,3.17
2018-09-04T19:23:23.008Z,4.10
2018-09-04T19:25:56.209Z,3.43
2018-09-04T19:28:35.267Z,3.10
2018-09-04T19:31:10.444Z,3.07
2018-09-04T19:33:45.483Z,3.70
2018-09-04T19:36:21.893Z,3.27
2018-09-04T19:38:56.009Z,3.67
2018-09-04T19:41:31.226Z,4.07
2018-09-04T19:44:06.381Z,3.73
2018-09-04T19:46:39.905Z,4.20
2018-09-04T19:49:13.870Z,3.63
2018-09-04T19:51:47.969Z,3.60
2018-09-04T19:54:21.601Z,3.53
2018-09-04T19:56:56.397Z,4.03
2018-09-04T19:59:30.467Z,4.03
2018-09-04T20:02:04.252Z,3.90
2018-09-04T20:04:37.598Z,4.40
2018-09-04T20:07:10.937Z,4.00
2018-09-04T20:09:44.410Z,4.07
2018-09-04T20:12:18.267Z,3.40
2018-09-04T20:14:52.177Z,3.57
2018-09-04T20:17:27.655Z,3.37
2018-09-04T20:20:00.871Z,3.73
2018-09-04T20:22:35.305Z,3.47
2018-09-04T20:25:09.719Z,3.43
2018-09-04T20:27:46.710Z,3.83
2018-09-04T20:30:20.511Z,3.70
2018-09-04T20:32:54.161Z,4.70
2018-09-04T20:35:27.287Z,3.97
2018-09-04T20:38:01.233Z,4.20
2018-09-04T20:40:34.622Z,3.60
2018-09-04T20:43:08.889Z,3.43
2018-09-04T20:45:42.107Z,3.60
2018-09-04T20:48:15.245Z,4.10
2018-09-04T20:50:49.138Z,3.97
2018-09-04T20:53:22.287Z,3.53
2018-09-04T20:55:55.782Z,4.13
2018-09-04T20:58:41.195Z,4.43
2018-09-04T21:01:26.706Z,4.03
2018-09-04T21:04:10.334Z,3.90
2018-09-04T21:06:46.005Z,4.20
2018-09-04T21:09:59.678Z,4.00
2018-09-04T21:12:33.657Z,4.00
2018-09-04T21:15:08.103Z,3.97
2018-09-04T21:17:42.634Z,4.27
2018-09-04T21:20:16.170Z,3.77
2018-09-04T21:22:52.574Z,4.17
2018-09-04T21:25:29.044Z,4.00
2018-09-04T21:28:02.819Z,4.40
2018-09-04T21:30:37.378Z,4.10
2018-09-04T21:33:10.953Z,4.13
2018-09-04T21:35:44.408Z,4.30
2018-09-04T21:38:19.756Z,3.83
2018-09-04T21:40:53.659Z,4.13
2018-09-04T21:43:26.934Z,4.90
2018-09-04T21:46:01.098Z,3.90
2018-09-04T21:48:35.542Z,4.50
2018-09-04T21:51:09.604Z,4.20
2018-09-04T21:53:44.228Z,3.33
2018-09-04T21:56:23.197Z,3.63
2018-09-04T21:58:56.344Z,3.93
2018-09-04T22:01:29.417Z,4.10
2018-09-04T22:04:03.531Z,3.50
2018-09-04T22:06:37.377Z,3.30
2018-09-04T22:09:11.824Z,3.67
2018-09-04T22:11:46.738Z,3.43
2018-09-04T22:14:20.019Z,3.70
2018-09-04T22:16:53.952Z,3.00
2018-09-04T22:19:27.534Z,3.40
2018-09-04T22:22:01.016Z,3.60
2018-09-04T22:24:36.984Z,3.80
2018-09-04T22:27:14.887Z,3.87
2018-09-04T22:29:52.245Z,4.27
2018-09-04T22:32:26.653Z,3.80
2018-09-04T22:35:00.216Z,4.17
2018-09-04T22:37:33.623Z,4.00
2018-09-04T22:40:08.005Z,3.50
2018-09-04T22:42:44.063Z,3.70
2018-09-04T22:45:17.862Z,4.10
2018-09-04T22:47:51.892Z,4.43
2018-09-04T22:50:29.596Z,4.50
2018-09-04T22:53:07.634Z,5.00
2018-09-04T22:55:41.609Z,4.40
2018-09-04T22:58:15.170Z,3.97
2018-09-04T23:00:51.461Z,4.80
2018-09-04T23:03:24.755Z,4.30
2018-09-04T23:05:58.282Z,4.80
2018-09-04T23:08:31.920Z,4.57
2018-09-04T23:11:06.941Z,4.50
2018-09-04T23:13:40.060Z,4.83
2018-09-04T23:16:14.385Z,5.03
2018-09-04T23:18:48.121Z,5.17
2018-09-04T23:21:21.724Z,4.47
2018-09-04T23:23:55.309Z,4.73
2018-09-04T23:30:38.335Z,4.83
2018-09-04T23:33:11.848Z,5.07
2018-09-04T23:35:48.563Z,5.23
2018-09-04T23:38:25.084Z,5.17
2018-09-04T23:41:03.178Z,4.97
2018-09-04T23:43:36.659Z,5.13
2018-09-04T23:46:10.038Z,5.67
2018-09-04T23:48:45.416Z,5.30
2018-09-04T23:51:21.068Z,5.33
2018-09-04T23:53:55.102Z,5.80
2018-09-04T23:56:28.337Z,5.60
2018-09-04T23:59:01.748Z,6.33
